Tete-A-La-Baleine, Canada
Current Conditions -  °F | °C
As of 9:00 PM on Monday 20 Oct 2014 (Local Time) from CWDH Reporting Station
Overcast Overcast  
Wind Chill: 35°   Ceiling: 1400
Heat Index: 44°   Visibility: 2.5mi
Dew Point: 38°   Wind: 28mph
Humidity: 80%   Direction: 220°SW
Pressure: 29.3"   Gusts: 45mph
Location:  50.7°N, 59.33°W
Report Text: CWDH 210000Z AUTO 22024G39KT 2 1/2SM OVC014 07/04 A2930 RMK SLP925 PK WND 22045/// T00690036 10075 20066 P0012 60059 70110 WSI/SWOB
Loading
Personal Weather Stations






























Interactive Weather Map
Tropical Storm Tracking
New forecast layout! Learn more

10-Day Weather Forecast

Advertisements
Track Severe Weather on mobile